Time;durP1;ratioP1;P1;durP2;ratioP2;P2;SDS_P1;SDS_P2;PMS_P1;PMS_P2;Temp;Humidity;BMP_temperature;BMP_pressure;BME280_temperature;BME280_humidity;BME280_pressure;Samples;Min_cycle;Max_cycle;Signal;HPM_P1;HPM_P2
2024/02/24 00:01:53;;;;;;;8.75;3.45;;;;;;;1.41;100.00;98423.66;5068859;28;20085;-69
2024/02/24 00:04:18;;;;;;;4.63;3.00;;;;;;;1.40;100.00;98424.78;5054465;28;20040;-68
2024/02/24 00:06:44;;;;;;;5.22;3.42;;;;;;;1.36;100.00;98429.16;5072440;28;20028;-68
2024/02/24 00:09:09;;;;;;;8.85;3.60;;;;;;;1.31;100.00;98427.31;5058307;28;20025;-68
2024/02/24 00:11:35;;;;;;;7.20;3.88;;;;;;;1.31;100.00;98430.84;5041421;28;20086;-69
2024/02/24 00:14:00;;;;;;;7.25;4.00;;;;;;;1.29;100.00;98424.84;5072663;28;20431;-69
2024/02/24 00:16:26;;;;;;;7.28;3.55;;;;;;;1.28;100.00;98438.78;5041180;28;20020;-69
2024/02/24 00:18:55;;;;;;;6.82;3.78;;;;;;;1.27;100.00;98440.72;5057714;28;20549;-68
2024/02/24 00:21:21;;;;;;;8.00;3.80;;;;;;;1.26;100.00;98444.56;5057051;28;20025;-68
2024/02/24 00:23:46;;;;;;;8.68;3.70;;;;;;;1.31;100.00;98446.47;5058109;28;20038;-68
2024/02/24 00:26:12;;;;;;;8.02;3.50;;;;;;;1.27;100.00;98445.38;5074455;28;20024;-69
2024/02/24 00:28:37;;;;;;;8.07;3.63;;;;;;;1.23;100.00;98444.31;5074575;28;20036;-69
2024/02/24 00:31:03;;;;;;;7.90;3.67;;;;;;;1.21;100.00;98436.38;5074392;28;20102;-68
2024/02/24 00:33:29;;;;;;;8.50;3.88;;;;;;;1.18;100.00;98442.41;5057920;28;20505;-68
2024/02/24 00:35:54;;;;;;;7.07;3.90;;;;;;;1.18;100.00;98438.88;5024144;28;20095;-68
2024/02/24 00:38:20;;;;;;;6.40;3.35;;;;;;;1.19;100.00;98446.78;5057931;28;20082;-68
2024/02/24 00:40:45;;;;;;;9.32;3.58;;;;;;;1.18;100.00;98441.59;5036685;28;20024;-68
2024/02/24 00:43:11;;;;;;;7.80;3.33;;;;;;;1.16;100.00;98449.28;5057656;28;20032;-68
2024/02/24 00:45:36;;;;;;;11.77;4.35;;;;;;;1.13;100.00;98450.66;5074706;28;20070;-69
2024/02/24 00:48:02;;;;;;;8.40;4.28;;;;;;;1.11;100.00;98450.94;5057689;28;20032;-68
2024/02/24 00:50:28;;;;;;;8.93;4.30;;;;;;;1.09;100.00;98447.66;5074219;28;20023;-68
2024/02/24 00:52:55;;;;;;;7.32;4.05;;;;;;;1.07;100.00;98452.59;5057773;28;20036;-68
2024/02/24 00:55:21;;;;;;;7.28;3.50;;;;;;;1.08;100.00;98447.94;5057445;28;20496;-68
2024/02/24 00:57:46;;;;;;;8.15;3.67;;;;;;;1.05;100.00;98454.78;5057347;28;20032;-69
2024/02/24 01:00:12;;;;;;;7.93;3.65;;;;;;;0.99;100.00;98461.38;5058868;28;20028;-68
2024/02/24 01:02:37;;;;;;;9.73;4.18;;;;;;;1.01;100.00;98464.66;5061292;28;20107;-69
2024/02/24 01:05:03;;;;;;;9.60;3.83;;;;;;;1.02;100.00;98466.28;5060744;28;20036;-69
2024/02/24 01:07:29;;;;;;;5.68;3.33;;;;;;;1.00;100.00;98467.66;5060924;28;20035;-69
2024/02/24 01:09:54;;;;;;;6.70;3.55;;;;;;;0.96;100.00;98472.06;5077262;28;20024;-68
2024/02/24 01:12:20;;;;;;;7.15;3.40;;;;;;;0.98;100.00;98478.91;5060971;28;20025;-69
2024/02/24 01:14:45;;;;;;;7.85;3.45;;;;;;;0.98;100.00;98489.84;5058333;28;20480;-68
2024/02/24 01:17:11;;;;;;;9.30;3.30;;;;;;;0.90;100.00;98493.16;5060775;28;20025;-68
2024/02/24 01:19:37;;;;;;;6.35;3.22;;;;;;;0.87;100.00;98482.78;5060700;28;20027;-68
2024/02/24 01:22:03;;;;;;;6.80;3.40;;;;;;;0.88;100.00;98487.13;5027482;28;20037;-68
2024/02/24 01:24:29;;;;;;;7.65;3.30;;;;;;;0.83;100.00;98493.44;5060417;28;20051;-68
2024/02/24 01:26:54;;;;;;;7.22;3.17;;;;;;;0.83;100.00;98492.63;5060732;28;20120;-69
2024/02/24 01:29:20;;;;;;;6.63;3.53;;;;;;;0.80;100.00;98488.53;5060661;28;20029;-68
2024/02/24 01:31:45;;;;;;;9.00;3.33;;;;;;;0.77;100.00;98496.47;5044212;28;20032;-68
2024/02/24 01:34:11;;;;;;;7.70;3.95;;;;;;;0.74;100.00;98505.22;5043600;28;20043;-68
2024/02/24 01:36:36;;;;;;;8.23;3.83;;;;;;;0.74;100.00;98502.50;5043182;28;20416;-68
2024/02/24 01:39:02;;;;;;;9.50;4.30;;;;;;;0.69;100.00;98506.06;5078203;28;20040;-68
2024/02/24 01:41:27;;;;;;;7.57;3.78;;;;;;;0.73;100.00;98509.06;5059035;28;20032;-68
2024/02/24 01:43:53;;;;;;;7.80;3.83;;;;;;;0.66;100.00;98507.44;5076607;28;20024;-68
2024/02/24 01:46:18;;;;;;;12.52;4.53;;;;;;;0.64;100.00;98506.91;5059443;28;20041;-69
2024/02/24 01:48:44;;;;;;;13.30;4.85;;;;;;;0.65;100.00;98516.72;5059681;28;20025;-69
2024/02/24 01:51:10;;;;;;;9.27;4.60;;;;;;;0.60;100.00;98524.94;5059844;28;20028;-68
2024/02/24 01:53:36;;;;;;;9.73;5.07;;;;;;;0.59;100.00;98520.56;5060183;28;20108;-68
2024/02/24 01:56:01;;;;;;;9.75;3.92;;;;;;;0.59;100.00;98517.03;5026773;28;20021;-68
2024/02/24 01:58:28;;;;;;;7.93;3.90;;;;;;;0.52;100.00;98516.50;5076656;28;20035;-69
2024/02/24 02:00:54;;;;;;;8.88;4.20;;;;;;;0.51;100.00;98512.13;5059369;28;20021;-68
2024/02/24 02:03:19;;;;;;;9.00;4.28;;;;;;;0.51;100.00;98510.22;5043052;28;20050;-68
2024/02/24 02:05:46;;;;;;;9.15;4.40;;;;;;;0.45;100.00;98514.06;5040361;28;20035;-68
2024/02/24 02:08:11;;;;;;;6.20;3.70;;;;;;;0.45;100.00;98514.06;5043267;28;20021;-69
2024/02/24 02:10:44;;;;;;;6.63;3.70;;;;;;;0.43;100.00;98516.25;5059776;28;20454;-68
2024/02/24 02:13:10;;;;;;;7.60;3.78;;;;;;;0.42;100.00;98523.63;5042837;28;20043;-68
2024/02/24 02:15:36;;;;;;;6.57;3.45;;;;;;;0.42;100.00;98526.34;5059662;28;20439;-68
2024/02/24 02:18:03;;;;;;;7.90;3.70;;;;;;;0.39;100.00;98523.31;5059706;28;20400;-68
2024/02/24 02:20:29;;;;;;;8.43;3.67;;;;;;;0.41;100.00;98532.06;5076342;28;20028;-68
2024/02/24 02:22:54;;;;;;;9.70;3.38;;;;;;;0.38;100.00;98540.81;5059412;28;20029;-68
2024/02/24 02:25:20;;;;;;;10.10;3.70;;;;;;;0.37;100.00;98531.81;5073263;28;20388;-68
2024/02/24 02:27:45;;;;;;;6.70;3.67;;;;;;;0.37;100.00;98536.47;5059209;28;20024;-68
2024/02/24 02:30:11;;;;;;;7.82;4.03;;;;;;;0.33;100.00;98529.91;5076256;28;20032;-69
2024/02/24 02:32:37;;;;;;;9.77;3.42;;;;;;;0.33;100.00;98533.44;5058797;28;20108;-68
2024/02/24 02:35:04;;;;;;;8.50;3.38;;;;;;;0.33;100.00;98525.25;5058903;28;20037;-68
2024/02/24 02:37:30;;;;;;;8.60;4.05;;;;;;;0.29;100.00;98526.91;5026719;28;20024;-68
2024/02/24 02:39:56;;;;;;;8.73;3.28;;;;;;;0.30;100.00;98533.19;5071997;28;20035;-68
2024/02/24 02:42:21;;;;;;;7.18;3.90;;;;;;;0.26;100.00;98530.19;5024372;28;20021;-68
2024/02/24 02:44:47;;;;;;;7.70;3.60;;;;;;;0.29;100.00;98534.28;5073430;28;20029;-68
2024/02/24 02:47:12;;;;;;;7.75;3.42;;;;;;;0.26;100.00;98535.66;5058566;28;20033;-68
2024/02/24 02:49:38;;;;;;;7.93;3.20;;;;;;;0.27;100.00;98536.47;5058119;28;20024;-68
2024/02/24 02:52:03;;;;;;;7.85;3.17;;;;;;;0.25;100.00;98541.38;5075456;28;20388;-68
2024/02/24 02:54:29;;;;;;;9.40;4.10;;;;;;;0.25;100.00;98546.84;5076687;28;20054;-68
2024/02/24 02:56:55;;;;;;;5.82;3.40;;;;;;;0.27;100.00;98548.19;5076545;28;20025;-68
2024/02/24 02:59:20;;;;;;;5.45;2.80;;;;;;;0.20;100.00;98545.75;5042430;28;20085;-68
2024/02/24 03:01:51;;;;;;;7.97;3.13;;;;;;;0.18;100.00;98545.22;5058752;28;20032;-68
2024/02/24 03:04:17;;;;;;;8.00;3.50;;;;;;;0.16;100.00;98550.13;5075228;28;20055;-68
2024/02/24 03:06:42;;;;;;;7.15;3.60;;;;;;;0.17;100.00;98548.22;5058552;28;20469;-68
2024/02/24 03:09:08;;;;;;;7.03;3.50;;;;;;;0.18;100.00;98552.59;5075417;28;20024;-69
2024/02/24 03:11:33;;;;;;;6.18;2.92;;;;;;;0.17;100.00;98548.22;5072291;28;20043;-68
2024/02/24 03:13:59;;;;;;;8.75;3.30;;;;;;;0.17;100.00;98554.50;5076112;28;20021;-68
2024/02/24 03:16:24;;;;;;;8.95;3.60;;;;;;;0.16;100.00;98557.50;5074781;28;20028;-68
2024/02/24 03:18:50;;;;;;;9.68;3.47;;;;;;;0.16;100.00;98558.31;5025511;28;20056;-71
2024/02/24 03:21:25;;;;;;;6.20;3.30;;;;;;;0.15;100.00;98556.69;5015553;28;20036;-68
2024/02/24 03:23:51;;;;;;;8.77;3.10;;;;;;;0.13;100.00;98564.31;5072553;28;20029;-68
2024/02/24 03:26:16;;;;;;;8.80;3.08;;;;;;;0.14;100.00;98557.78;5074837;28;20495;-68
2024/02/24 03:28:42;;;;;;;7.53;2.90;;;;;;;0.16;100.00;98557.50;5041292;28;20035;-68
2024/02/24 03:31:07;;;;;;;5.65;2.97;;;;;;;0.13;100.00;98568.97;5074572;28;20050;-68
2024/02/24 03:33:32;;;;;;;6.88;2.92;;;;;;;0.12;100.00;98557.22;5056880;28;20032;-68
2024/02/24 03:35:59;;;;;;;5.90;3.30;;;;;;;0.09;100.00;98546.88;5054671;28;20488;-68
2024/02/24 03:38:24;;;;;;;8.38;3.10;;;;;;;0.11;100.00;98550.16;5037000;28;20443;-68
2024/02/24 03:40:50;;;;;;;9.90;3.72;;;;;;;0.10;100.00;98543.03;5054039;28;20078;-68
2024/02/24 03:43:16;;;;;;;6.60;3.05;;;;;;;0.06;100.00;98552.88;5025074;28;20031;-68
2024/02/24 03:45:41;;;;;;;6.95;2.97;;;;;;;0.12;100.00;98559.97;5055759;28;20044;-68
2024/02/24 03:48:07;;;;;;;5.65;2.60;;;;;;;0.11;100.00;98558.34;5053019;28;20028;-69
2024/02/24 03:50:32;;;;;;;6.65;3.40;;;;;;;0.13;100.00;98560.78;5089823;28;20032;-68
2024/02/24 03:52:58;;;;;;;4.25;2.58;;;;;;;0.12;100.00;98568.16;5024681;28;20021;-68
2024/02/24 03:55:23;;;;;;;8.07;3.00;;;;;;;0.15;100.00;98573.06;5055333;28;20024;-68
2024/02/24 03:57:49;;;;;;;8.55;2.83;;;;;;;0.17;100.00;98572.81;5073110;28;20048;-68
2024/02/24 04:00:14;;;;;;;7.88;2.95;;;;;;;0.13;100.00;98577.97;5057389;28;20365;-68
2024/02/24 04:02:41;;;;;;;4.63;2.80;;;;;;;0.20;100.00;98572.25;5041510;28;20492;-68
2024/02/24 04:05:07;;;;;;;7.13;2.92;;;;;;;0.13;100.00;98568.97;5057644;28;20031;-68
2024/02/24 04:07:32;;;;;;;5.40;2.78;;;;;;;0.13;100.00;98574.41;5076063;28;20496;-68
2024/02/24 04:09:58;;;;;;;8.48;3.10;;;;;;;0.11;100.00;98582.91;5057304;28;20032;-68
2024/02/24 04:12:23;;;;;;;4.88;2.85;;;;;;;0.14;100.00;98571.44;5058072;28;20047;-68
2024/02/24 04:14:49;;;;;;;6.35;2.55;;;;;;;0.13;100.00;98568.97;5073728;28;20021;-68
2024/02/24 04:17:14;;;;;;;5.63;2.63;;;;;;;0.10;100.00;98564.88;5057864;28;20029;-68
2024/02/24 04:19:39;;;;;;;9.43;2.88;;;;;;;0.13;100.00;98571.69;5040844;28;20020;-68
2024/02/24 04:22:05;;;;;;;6.90;3.33;;;;;;;0.10;100.00;98569.50;5074627;28;20028;-68
2024/02/24 04:24:30;;;;;;;6.07;3.20;;;;;;;0.12;100.00;98562.69;5074558;28;20406;-68
2024/02/24 04:26:56;;;;;;;7.45;2.72;;;;;;;0.14;100.00;98555.06;5057606;28;20078;-68
2024/02/24 04:29:21;;;;;;;5.72;2.60;;;;;;;0.09;100.00;98557.78;5075477;28;20025;-68
2024/02/24 04:31:47;;;;;;;5.28;2.58;;;;;;;0.10;100.00;98567.59;5038586;28;20846;-68
2024/02/24 04:34:12;;;;;;;6.45;2.80;;;;;;;0.10;100.00;98580.44;5074328;28;20040;-68
2024/02/24 04:36:42;;;;;;;7.18;2.47;;;;;;;0.10;100.00;98573.06;5027759;28;20468;-68
2024/02/24 04:39:08;;;;;;;3.83;2.22;;;;;;;0.10;100.00;98575.78;5077753;28;20437;-69
2024/02/24 04:41:34;;;;;;;5.07;2.63;;;;;;;0.09;100.00;98585.06;5059450;28;20032;-68
2024/02/24 04:43:59;;;;;;;6.30;2.63;;;;;;;0.15;100.00;98594.91;5061147;28;20039;-68
2024/02/24 04:46:25;;;;;;;6.70;3.00;;;;;;;0.10;100.00;98597.63;5060729;28;20032;-68
2024/02/24 04:48:50;;;;;;;5.47;2.50;;;;;;;0.11;100.00;98590.25;5077763;28;20024;-68
2024/02/24 04:51:15;;;;;;;7.35;2.80;;;;;;;0.11;100.00;98585.63;5073903;28;20028;-68
2024/02/24 04:53:41;;;;;;;5.88;2.50;;;;;;;0.05;100.00;98583.97;5059172;28;20052;-68
2024/02/24 04:56:10;;;;;;;11.10;2.30;;;;;;;0.05;100.00;98586.69;5059035;28;20644;-68
2024/02/24 04:58:35;;;;;;;8.90;2.90;;;;;;;0.08;100.00;98594.34;5061231;28;20484;-68
2024/02/24 05:01:00;;;;;;;8.07;2.60;;;;;;;0.03;100.00;98597.09;5061108;28;20043;-68
2024/02/24 05:03:26;;;;;;;7.30;2.80;;;;;;;0.03;100.00;98607.16;5061062;28;20032;-68
2024/02/24 05:05:52;;;;;;;7.97;2.88;;;;;;;0.05;100.00;98605.81;5044292;28;20055;-68
2024/02/24 05:08:17;;;;;;;8.07;2.60;;;;;;;0.03;100.00;98620.81;5060808;28;20021;-69
2024/02/24 05:10:43;;;;;;;6.40;2.70;;;;;;;0.04;100.00;98619.75;5060773;28;20032;-68
2024/02/24 05:13:08;;;;;;;5.88;2.30;;;;;;;0.03;100.00;98624.38;5042907;28;20028;-68
2024/02/24 05:15:33;;;;;;;6.57;2.65;;;;;;;0.06;100.00;98623.03;5061115;28;20043;-68
2024/02/24 05:17:59;;;;;;;7.63;2.60;;;;;;;0.02;100.00;98625.44;5078611;28;20093;-68
2024/02/24 05:20:24;;;;;;;5.85;2.22;;;;;;;0.08;100.00;98639.91;5060499;28;20092;-68
2024/02/24 05:22:50;;;;;;;6.05;2.70;;;;;;;0.06;100.00;98653.03;5060150;28;20028;-68
2024/02/24 05:25:16;;;;;;;8.10;2.63;;;;;;;0.06;100.00;98653.84;5077478;28;20078;-68
2024/02/24 05:27:42;;;;;;;9.40;2.60;;;;;;;0.03;100.00;98657.13;5060760;28;20335;-68
2024/02/24 05:30:08;;;;;;;6.55;2.60;;;;;;;0.05;100.00;98654.94;5060811;28;20048;-68
2024/02/24 05:32:33;;;;;;;8.07;2.47;;;;;;;0.04;100.00;98658.75;5060506;28;20037;-68
2024/02/24 05:34:59;;;;;;;7.18;2.50;;;;;;;0.07;100.00;98658.22;5060127;28;20051;-68
2024/02/24 05:37:24;;;;;;;9.40;2.60;;;;;;;0.04;100.00;98653.31;5077107;28;20028;-68
2024/02/24 05:39:49;;;;;;;6.63;2.67;;;;;;;0.01;100.00;98645.66;5077067;28;20037;-68
2024/02/24 05:42:16;;;;;;;9.00;2.50;;;;;;;0.02;100.00;98646.47;5042460;28;20025;-68
2024/02/24 05:44:42;;;;;;;7.32;2.42;;;;;;;0.01;100.00;98658.50;5059958;28;20032;-68
2024/02/24 05:47:07;;;;;;;4.82;2.22;;;;;;;0.03;100.00;98662.59;5042606;28;20040;-68
2024/02/24 05:49:33;;;;;;;5.18;2.13;;;;;;;0.01;100.00;98661.22;5077767;28;20036;-68
2024/02/24 05:51:58;;;;;;;9.82;2.30;;;;;;;0.01;100.00;98674.88;5060100;28;20113;-68
2024/02/24 05:54:24;;;;;;;7.18;2.17;;;;;;;0.02;100.00;98681.94;5060170;28;20025;-68
2024/02/24 05:56:49;;;;;;;6.35;2.55;;;;;;;0.00;100.00;98668.59;5076391;28;20078;-68
2024/02/24 05:59:15;;;;;;;7.25;2.30;;;;;;;0.02;100.00;98671.84;5043307;28;20032;-68
2024/02/24 06:01:40;;;;;;;6.28;2.50;;;;;;;0.00;100.00;98679.50;5059933;28;20608;-68
2024/02/24 06:04:06;;;;;;;6.20;2.10;;;;;;;-0.04;100.00;98678.41;5060220;28;20024;-68
2024/02/24 06:06:31;;;;;;;5.18;2.35;;;;;;;-0.05;100.00;98688.50;5059749;28;20021;-68
2024/02/24 06:08:56;;;;;;;5.82;2.33;;;;;;;-0.04;100.00;98683.84;5059669;28;20025;-68
2024/02/24 06:11:22;;;;;;;7.63;2.55;;;;;;;-0.04;100.00;98683.84;5045188;28;20036;-68
2024/02/24 06:13:47;;;;;;;7.60;2.50;;;;;;;-0.08;100.00;98686.31;5043508;28;20081;-68
2024/02/24 06:16:13;;;;;;;6.03;2.58;;;;;;;-0.09;100.00;98694.75;5042085;28;20033;-68
2024/02/24 06:18:38;;;;;;;5.40;2.47;;;;;;;-0.12;100.00;98693.38;5042132;28;20401;-68
2024/02/24 06:21:04;;;;;;;6.93;2.10;;;;;;;-0.12;100.00;98696.09;5057123;28;20028;-68
2024/02/24 06:23:30;;;;;;;5.35;2.15;;;;;;;-0.11;100.00;98699.66;5087646;28;20092;-68
2024/02/24 06:25:56;;;;;;;4.93;2.40;;;;;;;-0.12;100.00;98703.47;5096901;28;20039;-69
2024/02/24 06:28:21;;;;;;;4.57;2.00;;;;;;;-0.13;100.00;98699.13;5097405;28;20032;-69
2024/02/24 06:30:47;;;;;;;4.22;2.20;;;;;;;-0.15;100.00;98709.47;5064383;28;20059;-69
2024/02/24 06:33:12;;;;;;;5.90;2.13;;;;;;;-0.10;100.00;98704.03;5091069;28;20046;-68
2024/02/24 06:35:38;;;;;;;4.70;2.20;;;;;;;-0.15;100.00;98699.38;5059003;28;20546;-68
2024/02/24 06:38:03;;;;;;;6.28;2.03;;;;;;;-0.15;100.00;98695.81;5059182;28;20027;-68
2024/02/24 06:40:29;;;;;;;6.35;2.15;;;;;;;-0.15;100.00;98702.09;5040069;28;20032;-68
2024/02/24 06:42:54;;;;;;;6.78;2.38;;;;;;;-0.17;100.00;98689.81;5075787;28;20047;-68
2024/02/24 06:45:20;;;;;;;4.65;2.33;;;;;;;-0.18;100.00;98690.91;5058702;28;20127;-68
2024/02/24 06:47:45;;;;;;;4.65;2.20;;;;;;;-0.15;100.00;98698.56;5059219;28;20023;-68
2024/02/24 06:50:11;;;;;;;4.75;1.92;;;;;;;-0.14;100.00;98705.66;5059004;28;20033;-68
2024/02/24 06:52:36;;;;;;;6.30;2.20;;;;;;;-0.17;100.00;98712.44;5075951;28;20043;-68
2024/02/24 06:55:02;;;;;;;5.63;2.03;;;;;;;-0.18;100.00;98712.75;5075814;28;20078;-68
2024/02/24 06:57:27;;;;;;;7.07;2.17;;;;;;;-0.18;100.00;98710.81;5075084;28;20059;-68
2024/02/24 06:59:53;;;;;;;6.03;2.38;;;;;;;-0.18;100.00;98716.28;5041466;28;20047;-68
2024/02/24 07:02:19;;;;;;;4.85;2.30;;;;;;;-0.18;100.00;98729.09;5055619;28;20596;-68
2024/02/24 07:04:45;;;;;;;5.82;2.47;;;;;;;-0.23;100.00;98725.25;5088528;28;20082;-68
2024/02/24 07:07:10;;;;;;;4.45;2.05;;;;;;;-0.18;100.00;98729.09;5059328;28;20025;-68
2024/02/24 07:09:36;;;;;;;5.57;2.15;;;;;;;-0.19;100.00;98724.75;5075680;28;20033;-68
2024/02/24 07:12:02;;;;;;;6.63;2.55;;;;;;;-0.17;100.00;98734.28;5055820;28;20040;-68
2024/02/24 07:14:27;;;;;;;4.80;2.05;;;;;;;-0.17;100.00;98736.19;5053313;28;20105;-68
2024/02/24 07:16:53;;;;;;;6.78;2.10;;;;;;;-0.19;100.00;98732.94;5042056;28;20036;-68
2024/02/24 07:19:18;;;;;;;3.10;1.73;;;;;;;-0.17;100.00;98738.91;5059039;28;20036;-68
2024/02/24 07:21:44;;;;;;;8.00;2.65;;;;;;;-0.14;100.00;98738.38;5042532;28;20029;-68
2024/02/24 07:24:09;;;;;;;8.88;2.33;;;;;;;-0.12;100.00;98736.22;5075512;28;20530;-68
2024/02/24 07:26:42;;;;;;;6.75;2.50;;;;;;;-0.09;100.00;98741.97;5055733;28;20474;-68
2024/02/24 07:29:07;;;;;;;6.10;2.40;;;;;;;-0.06;100.00;98735.16;5055548;28;20032;-68
2024/02/24 07:31:33;;;;;;;3.45;2.03;;;;;;;-0.04;100.00;98736.53;5058995;28;20051;-68
2024/02/24 07:33:58;;;;;;;5.85;2.25;;;;;;;0.02;100.00;98739.28;5055304;28;20021;-68
2024/02/24 07:36:24;;;;;;;5.45;2.20;;;;;;;0.04;100.00;98746.09;5058587;28;20025;-68
2024/02/24 07:38:49;;;;;;;8.25;2.30;;;;;;;0.09;100.00;98753.50;5075219;28;20089;-68
2024/02/24 07:41:15;;;;;;;6.55;2.30;;;;;;;0.17;100.00;98764.72;5066665;28;20021;-68
2024/02/24 07:43:41;;;;;;;5.80;2.60;;;;;;;0.22;100.00;98762.00;5087094;28;20039;-68
2024/02/24 07:46:06;;;;;;;10.13;2.60;;;;;;;0.27;100.00;98765.81;5057595;28;20175;-69
2024/02/24 07:48:31;;;;;;;6.55;2.60;;;;;;;0.40;100.00;98770.78;5075197;28;20465;-68
2024/02/24 07:50:57;;;;;;;8.15;2.50;;;;;;;0.51;100.00;98766.16;5058342;28;20028;-68
2024/02/24 07:53:22;;;;;;;4.82;2.47;;;;;;;0.60;100.00;98770.00;5058372;28;20039;-69
2024/02/24 07:55:48;;;;;;;6.00;2.45;;;;;;;0.71;100.00;98765.34;5058700;28;20040;-69
2024/02/24 07:58:13;;;;;;;8.48;2.60;;;;;;;0.81;100.00;98766.19;5058575;28;20043;-68
2024/02/24 08:00:39;;;;;;;5.57;2.53;;;;;;;0.90;100.00;98769.19;5075346;28;20036;-68
2024/02/24 08:03:04;;;;;;;6.25;1.90;;;;;;;1.00;100.00;98780.09;5025352;28;20039;-68
2024/02/24 08:05:30;;;;;;;9.00;2.42;;;;;;;1.08;100.00;98770.53;5074841;28;20082;-68
2024/02/24 08:07:55;;;;;;;6.85;2.50;;;;;;;1.13;100.00;98769.72;5058275;28;20516;-68
2024/02/24 08:10:21;;;;;;;7.25;2.25;;;;;;;1.22;100.00;98752.47;5053697;28;20043;-69
2024/02/24 08:12:47;;;;;;;5.75;2.20;;;;;;;1.28;100.00;98765.06;5055384;28;20465;-68
2024/02/24 08:15:12;;;;;;;5.30;2.00;;;;;;;1.36;100.00;98765.59;5029230;28;20079;-68
2024/02/24 08:17:38;;;;;;;4.43;2.13;;;;;;;1.44;100.00;98768.59;5074154;28;20040;-68
2024/02/24 08:20:06;;;;;;;7.55;2.20;;;;;;;1.51;100.00;98765.59;5045701;28;20025;-69
2024/02/24 08:22:32;;;;;;;8.02;2.22;;;;;;;1.58;100.00;98773.50;5079071;28;20103;-68
2024/02/24 08:24:57;;;;;;;5.30;2.10;;;;;;;1.65;100.00;98768.56;5042219;28;20091;-68
2024/02/24 08:27:22;;;;;;;8.82;2.92;;;;;;;1.71;100.00;98757.31;5045674;28;20499;-69
2024/02/24 08:29:48;;;;;;;5.50;2.00;;;;;;;1.79;100.00;98748.53;5058754;28;20037;-68
2024/02/24 08:32:13;;;;;;;5.97;2.25;;;;;;;1.88;100.00;98753.41;5063509;28;23483;-69
2024/02/24 08:34:39;;;;;;;9.25;2.60;;;;;;;1.94;100.00;98761.31;5078601;28;20033;-68
2024/02/24 08:37:05;;;;;;;8.70;3.10;;;;;;;2.01;100.00;98759.13;5045228;28;20036;-69
2024/02/24 08:39:30;;;;;;;11.15;6.45;;;;;;;2.08;100.00;98772.50;5061913;28;20032;-68
2024/02/24 08:41:56;;;;;;;9.00;2.28;;;;;;;2.16;100.00;98765.63;5031804;28;20025;-69
2024/02/24 08:44:22;;;;;;;9.20;2.80;;;;;;;2.26;100.00;98771.06;5061789;28;20029;-69
2024/02/24 08:46:47;;;;;;;9.90;3.78;;;;;;;2.34;100.00;98764.13;5045681;28;20044;-69
2024/02/24 08:49:13;;;;;;;9.57;3.30;;;;;;;2.42;100.00;98771.75;5061445;28;20040;-69
2024/02/24 08:51:38;;;;;;;10.05;3.08;;;;;;;2.53;100.00;98767.03;5042280;28;20031;-68
2024/02/24 08:54:04;;;;;;;8.05;3.17;;;;;;;2.58;100.00;98769.75;5061428;28;20093;-69
2024/02/24 08:56:29;;;;;;;9.68;3.10;;;;;;;2.65;100.00;98773.81;5078105;28;20025;-68
2024/02/24 08:58:54;;;;;;;8.93;3.03;;;;;;;2.75;100.00;98777.59;5061521;28;20028;-69
2024/02/24 09:01:23;;;;;;;12.80;2.92;;;;;;;2.82;100.00;98770.69;5061593;28;20025;-68
2024/02/24 09:03:48;;;;;;;7.05;3.08;;;;;;;2.87;100.00;98773.41;5078325;28;20032;-68
2024/02/24 09:06:15;;;;;;;8.48;3.17;;;;;;;2.94;100.00;98785.97;5077820;28;20481;-69
2024/02/24 09:08:40;;;;;;;13.35;3.53;;;;;;;2.98;100.00;98773.31;5044731;28;20043;-68
2024/02/24 09:11:06;;;;;;;10.90;3.17;;;;;;;3.01;100.00;98778.22;5044339;28;20020;-69
2024/02/24 09:13:31;;;;;;;9.05;2.70;;;;;;;3.05;100.00;98779.28;5072996;28;20389;-69
2024/02/24 09:15:58;;;;;;;7.22;2.38;;;;;;;3.09;100.00;98758.41;5059235;28;20025;-69
2024/02/24 09:18:25;;;;;;;8.50;3.22;;;;;;;3.12;100.00;98755.91;5057931;28;20033;-69
2024/02/24 09:20:51;;;;;;;8.05;2.75;;;;;;;3.16;100.00;98756.16;5055193;28;20029;-68
2024/02/24 09:23:18;;;;;;;9.68;2.97;;;;;;;3.19;100.00;98752.84;5060806;28;20031;-69
2024/02/24 09:25:44;;;;;;;9.18;3.08;;;;;;;3.23;100.00;98753.91;5070727;28;20112;-69
2024/02/24 09:28:12;;;;;;;11.48;2.50;;;;;;;3.26;100.00;98739.59;5057842;28;20040;-68
2024/02/24 09:30:38;;;;;;;10.35;2.88;;;;;;;3.31;100.00;98756.00;5074177;28;20068;-69
2024/02/24 09:33:03;;;;;;;11.50;3.45;;;;;;;3.31;100.00;98755.19;5060728;28;20044;-68
2024/02/24 09:35:29;;;;;;;8.57;2.50;;;;;;;3.35;100.00;98751.59;5077408;28;20107;-69
2024/02/24 09:37:54;;;;;;;7.80;2.67;;;;;;;3.43;100.00;98763.06;5057459;28;20041;-68
2024/02/24 09:40:20;;;;;;;8.60;2.70;;;;;;;3.54;100.00;98776.38;5054621;28;20079;-69
2024/02/24 09:42:45;;;;;;;6.47;2.30;;;;;;;3.67;100.00;98769.38;5065079;28;20031;-68
2024/02/24 09:45:12;;;;;;;11.60;2.80;;;;;;;3.77;100.00;98772.00;5082908;28;20477;-69
2024/02/24 09:47:45;;;;;;;10.82;2.90;;;;;;;3.88;100.00;98775.47;5060045;28;20031;-68
2024/02/24 09:50:11;;;;;;;11.07;2.65;;;;;;;4.01;100.00;98773.91;5043840;28;20107;-68
2024/02/24 09:52:41;;;;;;;12.32;2.67;;;;;;;4.11;100.00;98779.28;5060766;28;20035;-69
2024/02/24 09:55:07;;;;;;;9.68;2.28;;;;;;;4.18;100.00;98774.28;5044466;28;20396;-69
2024/02/24 09:57:35;;;;;;;13.73;2.55;;;;;;;4.31;100.00;98777.41;5043996;28;20032;-69
2024/02/24 10:00:01;;;;;;;9.18;2.50;;;;;;;4.42;100.00;98776.16;5077196;28;20381;-69
2024/02/24 10:02:27;;;;;;;10.40;2.35;;;;;;;4.53;100.00;98779.59;5060442;28;20435;-69
2024/02/24 10:04:53;;;;;;;5.32;1.90;;;;;;;4.62;100.00;98784.09;5060104;28;20040;-69
2024/02/24 10:07:18;;;;;;;12.52;2.15;;;;;;;4.73;100.00;98783.97;5060776;28;20024;-69
2024/02/24 10:09:44;;;;;;;9.25;2.35;;;;;;;4.86;100.00;98774.97;5076694;28;20028;-69
2024/02/24 10:12:10;;;;;;;14.15;2.53;;;;;;;4.98;100.00;98780.81;5076949;28;20476;-69
2024/02/24 10:14:35;;;;;;;7.65;2.25;;;;;;;5.13;100.00;98783.34;5066622;28;20037;-69
2024/02/24 10:17:02;;;;;;;9.57;2.30;;;;;;;5.23;100.00;98785.09;5077008;28;20029;-69
2024/02/24 10:19:31;;;;;;;14.18;2.75;;;;;;;5.34;100.00;98778.28;5040171;28;20546;-69
2024/02/24 10:22:01;;;;;;;8.60;2.05;;;;;;;5.46;100.00;98788.84;5056608;28;20032;-69
2024/02/24 10:24:27;;;;;;;11.43;2.70;;;;;;;5.60;100.00;98788.88;5056449;28;20116;-69
2024/02/24 10:26:52;;;;;;;11.30;2.20;;;;;;;5.67;100.00;98792.03;5056781;28;20021;-69
2024/02/24 10:29:20;;;;;;;10.07;2.40;;;;;;;5.79;100.00;98786.03;5060089;28;20086;-69
2024/02/24 10:31:46;;;;;;;15.93;2.83;;;;;;;5.87;100.00;98801.03;5040386;28;20032;-69
2024/02/24 10:34:12;;;;;;;12.60;3.10;;;;;;;5.92;100.00;98793.50;5058320;28;20042;-69
2024/02/24 10:36:37;;;;;;;17.63;3.60;;;;;;;5.97;100.00;98796.19;5059808;28;20024;-69
2024/02/24 10:39:03;;;;;;;16.92;3.10;;;;;;;6.01;100.00;98791.69;5059804;28;20143;-69
2024/02/24 10:41:28;;;;;;;14.93;2.53;;;;;;;6.02;100.00;98793.34;5049531;28;20021;-69
2024/02/24 10:43:53;;;;;;;11.13;2.40;;;;;;;6.04;100.00;98799.38;5039657;28;20032;-69
2024/02/24 10:46:19;;;;;;;12.02;2.30;;;;;;;6.04;100.00;98796.63;5075697;28;20066;-69
2024/02/24 10:48:44;;;;;;;13.52;2.75;;;;;;;6.07;100.00;98794.34;5075781;28;20025;-69
2024/02/24 10:51:13;;;;;;;8.55;2.20;;;;;;;6.07;100.00;98797.09;5056392;28;20037;-69
2024/02/24 10:53:45;;;;;;;18.17;2.83;;;;;;;6.07;100.00;98805.38;5068971;28;20025;-69
2024/02/24 10:56:10;;;;;;;14.02;2.25;;;;;;;6.08;100.00;98799.56;5068002;28;20040;-69
2024/02/24 10:58:35;;;;;;;10.52;1.92;;;;;;;6.11;100.00;98801.72;5042097;28;20032;-69
2024/02/24 11:01:01;;;;;;;10.13;1.85;;;;;;;6.17;100.00;98802.41;5075906;28;20032;-69
2024/02/24 11:03:26;;;;;;;7.72;1.35;;;;;;;6.26;100.00;98803.31;5055955;28;20032;-69
2024/02/24 11:05:52;;;;;;;7.20;1.58;;;;;;;6.31;100.00;98800.47;5055973;28;20028;-69
2024/02/24 11:08:40;;;;;;;6.90;1.98;;;;;;;6.40;100.00;98798.63;5055923;28;20029;-69
2024/02/24 11:11:12;;;;;;;6.10;1.20;;;;;;;6.49;100.00;98804.22;5056556;28;20060;-69
2024/02/24 11:13:45;;;;;;;5.38;1.10;;;;;;;6.58;100.00;98798.81;5073217;28;20108;-69
2024/02/24 11:16:11;;;;;;;4.13;1.05;;;;;;;6.64;100.00;98797.56;5072026;28;20033;-69
2024/02/24 11:18:48;;;;;;;5.25;1.23;;;;;;;6.73;100.00;98798.47;5059222;28;20033;-69
2024/02/24 11:21:16;;;;;;;5.25;1.40;;;;;;;6.82;100.00;98798.53;5075323;28;20039;-69
2024/02/24 11:23:44;;;;;;;6.07;0.90;;;;;;;6.88;100.00;98805.56;5058899;28;20473;-69
2024/02/24 11:26:12;;;;;;;6.15;1.10;;;;;;;7.00;100.00;98799.53;5059302;28;20473;-69